Wednesday, September 19, 2018, 3:26 PM EDT
Back to Local

KFAF, Fort Eustis / Felker

Location: Fort Eustis, VA, United States Lat: 37.133
Local Time: 3:26 PM EDT (19:26 GMT) Lon: -76.617
Time Zone: US/Eastern Elev: 13 ft

Show me the last for .
Show Decoded

2018-09-19 14:56 METAR KFAF 191856Z AUTO 32007KT 10SM CLR 30/21 A2989 RMK AO2 SLP125 T03000213 $
                 =
2018-09-19 13:56 METAR KFAF 191756Z AUTO 33007KT 10SM CLR 30/22 A2990 RMK AO2 SLP128 T02950217
                 10296 20230 58002 $ =
2018-09-19 12:56 METAR KFAF 191656Z AUTO 34008KT 10SM FEW035 FEW045 29/22 A2991 RMK AO2 SLP132
                 T02910216 $ =
2018-09-19 11:56 METAR KFAF 191556Z AUTO 36007KT 10SM CLR 28/22 A2991 RMK AO2 SLP132 T02820215 $
                 =
2018-09-19 10:56 METAR KFAF 191456Z AUTO 36008KT 10SM CLR 27/21 A2991 RMK AO2 SLP132 T02720210
                 52014 $ =
2018-09-19 09:56 METAR KFAF 191356Z AUTO 33006KT 10SM CLR 26/21 A2989 RMK AO2 SLP125 T02570213 $
                 =
2018-09-19 08:56 METAR KFAF 191256Z AUTO 32006KT 10SM CLR 24/21 A2988 RMK AO2 SLP121 T02390208 $
                 =
2018-09-19 07:56 METAR KFAF 191156Z AUTO 33005KT 10SM CLR 23/20 A2987 RMK AO2 SLP118 70011
                 T02290204 10236 20216 52012 $ =
2018-09-19 06:56 METAR KFAF 191056Z AUTO 32005KT 10SM CLR 22/20 A2985 RMK AO2 SLP111 T02190200 $
                 =
2018-09-19 05:56 METAR KFAF 190956Z AUTO 32004KT 10SM CLR 22/20 A2984 RMK AO2 SLP108 T02200201 $
                 =
2018-09-19 04:56 METAR KFAF 190856Z AUTO 34003KT 10SM CLR 23/20 A2983 RMK AO2 SLP104 T02250202
                 51008 $ =
2018-09-19 03:56 METAR KFAF 190756Z AUTO 32007KT 10SM CLR 23/20 A2982 RMK AO2 SLP101 T02280201 $
                 =
2018-09-19 02:56 METAR KFAF 190656Z AUTO 33005KT 10SM OVC065 24/21 A2982 RMK AO2 SLP101 T02350206
                 $ =
2018-09-19 01:56 METAR KFAF 190556Z AUTO 34007KT 10SM CLR 24/21 A2981 RMK AO2 SLP098 T02360209
                 10241 20236 56002 $ =
2018-09-19 00:56 METAR KFAF 190456Z AUTO 32006KT 10SM CLR 24/22 A2981 RMK AO2 SLP098 T02380220
                 402970234 $ =
2018-09-18 23:56 METAR KFAF 190356Z AUTO 30004KT 10SM SCT008 BKN055 BKN070 24/23 A2981 RMK AO2
                 SLP098 T02380229 $ =
2018-09-18 22:56 METAR KFAF 190256Z AUTO 27004KT 10SM FEW007 BKN050 BKN085 24/23 A2981 RMK AO2
                 SLP098 T02410229 51011 $ =
2018-09-18 21:56 METAR KFAF 190156Z AUTO 33005KT 10SM SCT012 BKN055 OVC070 24/22 A2981 RMK AO2
                 SLP098 T02380222 $ =
2018-09-18 20:56 METAR KFAF 190056Z AUTO 35005KT 10SM OVC050 24/22 A2980 RMK AO2 SLP094 T02390219
                 $ =
2018-09-18 19:56 METAR KFAF 182356Z AUTO 34007G15KT 10SM BKN031 24/22 A2978 RMK AO2
                 DZB2256E2257RAB2257E51 SLP088 P0007 60011 T02360222 10292 20234 52014 $ =
2018-09-18 19:51 METAR KFAF 182351Z AUTO 34006KT 10SM BKN031 24/22 A2978 RMK AO2
                 DZB2256E2257RAB2257E51 SLP088 $ =
2018-09-18 19:17 METAR KFAF 182317Z 34008G15KT 6SM +RA BR SCT009 BKN018 OVC035 24/23 A2977 RMK
                 AO2A DZB2256E2257RAB2257 CIG 013V019 SLP084 $ =
2018-09-18 18:57 METAR KFAF 182257Z 33009G16KT 10SM -DZ BKN012 BKN027 OVC035 24/23 A2976 RMK AO2A
                 DZB56E57RAB57 SLP081 $ =
2018-09-18 18:56 METAR KFAF 182256Z 33008G16KT 10SM BKN012 BKN027 OVC035 24/23 A2976 RMK AO2A
                 RAB07E24DZB24E28 BKN012 V OVC SLP081 P0000 T02430225 $ =
2018-09-18 18:38 METAR KFAF 182238Z AUTO 33008KT 10SM BKN011 BKN018 OVC026 25/23 A2976 RMK AO2
                 RAB07E24DZB24E28 CIG 011V018 SLP081 $ =
2018-09-18 18:28 METAR KFAF 182228Z AUTO 31008KT 10SM SCT012 BKN016 OVC023 25/24 A2976 RMK AO2
                 RAB07E24DZB24E28 CIG 016V027 BKN V SCT SLP081 $ =
2018-09-18 18:07 METAR KFAF 182207Z AUTO 30003KT 10SM -RA SCT019 BKN029 OVC037 25/23 A2975 RMK
                 AO2 RAB07 SLP077 $ =
2018-09-18 17:56 METAR KFAF 182156Z AUTO 00000KT 10SM BKN029 BKN037 25/23 A2974 RMK AO2 RAB00E39
                 CIG 029V037 BKN029 V SCT SLP074 P0004 T02460232 $ =
2018-09-18 17:00 METAR KFAF 182100Z AUTO 30013G18KT 10SM -RA FEW030 OVC047 28/22 A2974 RMK AO2
                 RAB00 SLP074 $ =
2018-09-18 16:56 METAR KFAF 182056Z AUTO 26004KT 10SM BKN048 OVC075 28/22 A2974 RMK AO2 SLP074
                 60000 T02770219 55006 $ =
2018-09-18 15:56 METAR KFAF 181956Z AUTO 24009G16KT 10SM FEW030 SCT050 29/22 A2973 RMK AO2 SLP071
                 T02880215 $ =

Support USWX by starting your Amazon purchase here.